createdAt,value
2018-06-04T00:00:47.604Z,62.50
2018-06-04T00:03:17.729Z,63.00
2018-06-04T00:05:47.884Z,62.30
2018-06-04T00:08:17.899Z,62.70
2018-06-04T00:10:47.916Z,62.60
2018-06-04T00:13:18.000Z,62.80
2018-06-04T00:15:48.061Z,62.10
2018-06-04T00:18:18.052Z,62.00
2018-06-04T00:20:48.136Z,61.90
2018-06-04T00:23:18.260Z,61.90
2018-06-04T00:25:48.212Z,61.80
2018-06-04T00:28:18.212Z,62.00
2018-06-04T00:30:48.249Z,61.90
2018-06-04T00:33:18.296Z,61.60
2018-06-04T00:35:48.364Z,61.70
2018-06-04T00:38:18.432Z,61.60
2018-06-04T00:40:48.506Z,61.50
2018-06-04T00:43:18.564Z,61.50
2018-06-04T00:45:48.556Z,61.40
2018-06-04T00:48:18.584Z,61.50
2018-06-04T00:50:48.661Z,61.60
2018-06-04T00:53:18.696Z,61.30
2018-06-04T00:55:59.796Z,61.70
2018-06-04T00:58:29.830Z,61.60
2018-06-04T01:00:59.872Z,61.50
2018-06-04T01:03:29.913Z,61.40
2018-06-04T01:05:59.995Z,61.40
2018-06-04T01:08:30.016Z,61.40
2018-06-04T01:11:00.069Z,61.20
2018-06-04T01:13:30.156Z,61.10
2018-06-04T01:16:00.256Z,61.40
2018-06-04T01:18:30.296Z,61.20
2018-06-04T01:21:00.372Z,61.10
2018-06-04T01:23:30.413Z,61.30
2018-06-04T01:26:00.464Z,61.50
2018-06-04T01:28:30.528Z,61.60
2018-06-04T01:31:00.589Z,62.00
2018-06-04T01:33:30.589Z,61.80
2018-06-04T01:36:00.708Z,61.50
2018-06-04T01:38:30.849Z,61.90
2018-06-04T01:41:00.893Z,62.40
2018-06-04T01:43:30.940Z,61.90
2018-06-04T01:46:01.004Z,63.10
2018-06-04T01:48:31.050Z,63.20
2018-06-04T01:51:01.176Z,63.80
2018-06-04T01:53:31.248Z,63.60
2018-06-04T01:56:01.316Z,63.70
2018-06-04T01:58:31.429Z,63.90
2018-06-04T02:01:01.487Z,64.00
2018-06-04T02:03:31.529Z,63.80
2018-06-04T02:06:01.619Z,63.90
2018-06-04T02:08:31.716Z,64.30
2018-06-04T02:11:01.796Z,64.50
2018-06-04T02:13:31.893Z,64.80
2018-06-04T02:16:01.940Z,64.80
2018-06-04T02:18:31.988Z,64.60
2018-06-04T02:21:02.041Z,65.30
2018-06-04T02:23:32.161Z,65.40
2018-06-04T02:26:02.224Z,65.80
2018-06-04T02:28:32.325Z,66.70
2018-06-04T02:31:02.362Z,66.00
2018-06-04T02:33:32.453Z,66.10
2018-06-04T02:36:02.560Z,66.10
2018-06-04T02:38:32.609Z,65.20
2018-06-04T02:41:02.684Z,64.20
2018-06-04T02:43:32.745Z,63.50
2018-06-04T02:46:02.820Z,62.50
2018-06-04T02:48:32.905Z,61.40
2018-06-04T02:51:02.981Z,61.10
2018-06-04T02:53:33.076Z,60.00
2018-06-04T02:56:03.098Z,59.90
2018-06-04T02:58:33.137Z,59.50
2018-06-04T03:01:03.150Z,59.50
2018-06-04T03:03:33.151Z,58.50
2018-06-04T03:06:03.229Z,58.60
2018-06-04T03:08:33.369Z,58.40
2018-06-04T03:11:03.413Z,58.30
2018-06-04T03:13:33.513Z,58.00
2018-06-04T03:16:03.544Z,58.10
2018-06-04T03:18:33.621Z,57.10
2018-06-04T03:21:03.652Z,57.00
2018-06-04T03:23:34.412Z,57.20
2018-06-04T03:26:04.463Z,57.10
2018-06-04T03:28:34.534Z,56.80
2018-06-04T03:31:04.678Z,57.30
2018-06-04T03:33:34.733Z,56.60
2018-06-04T03:36:04.784Z,54.80
2018-06-04T03:38:34.841Z,53.30
2018-06-04T03:41:04.936Z,52.30
2018-06-04T03:43:35.000Z,52.20
2018-06-04T03:46:05.068Z,51.20
2018-06-04T03:48:35.174Z,51.00
2018-06-04T03:51:05.228Z,50.20
2018-06-04T03:53:35.291Z,49.40
2018-06-04T03:56:05.378Z,49.60
2018-06-04T03:58:35.916Z,49.70
2018-06-04T04:01:05.964Z,49.50
2018-06-04T04:03:36.090Z,49.40
2018-06-04T04:06:06.149Z,48.70
2018-06-04T04:08:36.221Z,49.10
2018-06-04T04:11:06.417Z,49.00
2018-06-04T04:13:36.464Z,48.70
2018-06-04T04:16:06.536Z,49.50
2018-06-04T04:18:36.605Z,49.50
2018-06-04T04:21:06.607Z,49.50
2018-06-04T04:23:36.638Z,49.80
2018-06-04T04:26:06.688Z,49.20
2018-06-04T04:28:36.823Z,49.70
2018-06-04T04:31:06.980Z,49.80
2018-06-04T04:33:37.024Z,50.30
2018-06-04T04:36:07.084Z,50.90
2018-06-04T04:38:37.132Z,49.50
2018-06-04T04:41:07.200Z,50.40
2018-06-04T04:43:37.294Z,49.60
2018-06-04T04:46:07.336Z,49.90
2018-06-04T04:48:37.476Z,50.10
2018-06-04T04:51:07.629Z,49.80
2018-06-04T04:53:37.705Z,49.00
2018-06-04T04:56:07.755Z,48.00
2018-06-04T04:58:37.888Z,47.60
2018-06-04T05:01:07.941Z,48.10
2018-06-04T05:03:38.052Z,47.90
2018-06-04T05:06:08.117Z,48.40
2018-06-04T05:08:38.187Z,47.40
2018-06-04T05:11:08.368Z,47.80
2018-06-04T05:13:38.439Z,47.10
2018-06-04T05:16:08.477Z,47.40
2018-06-04T05:18:38.573Z,47.60
2018-06-04T05:21:08.662Z,47.40
2018-06-04T05:23:39.308Z,47.50
2018-06-04T05:26:09.355Z,47.90
2018-06-04T05:28:39.505Z,47.00
2018-06-04T05:31:09.576Z,47.00
2018-06-04T05:33:39.629Z,46.70
2018-06-04T05:36:09.626Z,47.10
2018-06-04T05:38:39.705Z,47.40
2018-06-04T05:41:09.771Z,47.40
2018-06-04T05:43:39.848Z,47.40
2018-06-04T05:46:09.868Z,47.40
2018-06-04T05:48:39.837Z,46.70
2018-06-04T05:51:09.865Z,46.20
2018-06-04T05:53:40.096Z,45.30
2018-06-04T05:56:10.242Z,44.70
2018-06-04T05:58:40.332Z,45.40
2018-06-04T06:01:10.373Z,45.50
2018-06-04T06:03:40.424Z,45.20
2018-06-04T06:06:10.425Z,45.40
2018-06-04T06:08:40.517Z,44.40
2018-06-04T06:11:10.552Z,44.60
2018-06-04T06:13:40.620Z,45.00
2018-06-04T06:16:10.697Z,44.50
2018-06-04T06:18:40.745Z,44.00
2018-06-04T06:21:10.797Z,44.80
2018-06-04T06:23:40.896Z,44.70
2018-06-04T06:26:10.945Z,43.70
2018-06-04T06:28:40.979Z,43.80
2018-06-04T06:31:11.040Z,43.20
2018-06-04T06:33:41.032Z,43.60
2018-06-04T06:36:11.125Z,43.50
2018-06-04T06:38:41.215Z,42.80
2018-06-04T06:41:11.401Z,43.30
2018-06-04T06:43:41.479Z,43.30
2018-06-04T06:46:11.548Z,43.60
2018-06-04T06:48:41.568Z,43.10
2018-06-04T06:51:12.503Z,42.20
2018-06-04T06:53:42.576Z,43.20
2018-06-04T06:56:12.644Z,42.70
2018-06-04T06:58:42.684Z,42.80
2018-06-04T07:01:12.740Z,42.90
2018-06-04T07:03:42.828Z,43.30
2018-06-04T07:06:12.904Z,42.80
2018-06-04T07:08:42.976Z,43.20
2018-06-04T07:11:13.269Z,42.30
2018-06-04T07:13:43.324Z,41.30
2018-06-04T07:16:13.376Z,42.20
2018-06-04T07:18:43.513Z,41.00
2018-06-04T07:21:13.636Z,39.60
2018-06-04T07:23:43.717Z,40.20
2018-06-04T07:26:13.828Z,39.90
2018-06-04T07:28:44.711Z,40.00
2018-06-04T07:31:14.764Z,39.50
2018-06-04T07:33:45.376Z,39.00
2018-06-04T07:36:15.548Z,38.70
2018-06-04T07:38:45.640Z,39.00
2018-06-04T07:41:16.014Z,38.90
2018-06-04T07:43:46.252Z,39.10
2018-06-04T07:46:16.356Z,38.30
2018-06-04T07:48:46.700Z,37.90
2018-06-04T07:51:16.899Z,37.90
2018-06-04T07:53:46.873Z,37.40
2018-06-04T07:56:17.044Z,36.70
2018-06-04T07:58:47.320Z,35.20
2018-06-04T08:03:46.994Z,36.50
2018-06-04T08:06:17.056Z,37.00
2018-06-04T08:08:47.381Z,36.70
2018-06-04T08:11:18.013Z,35.80
2018-06-04T08:13:48.359Z,35.50
2018-06-04T08:16:18.629Z,36.00
2018-06-04T08:18:48.814Z,36.80
2018-06-04T08:21:18.878Z,34.50
2018-06-04T08:23:49.273Z,35.50
2018-06-04T08:26:19.476Z,34.20
2018-06-04T08:28:49.644Z,33.50
2018-06-04T08:31:20.008Z,33.20
2018-06-04T08:33:50.249Z,34.50
2018-06-04T08:36:20.412Z,33.70
2018-06-04T08:38:50.733Z,34.00
2018-06-04T08:41:20.895Z,34.30
2018-06-04T08:43:51.164Z,33.50
2018-06-04T08:46:21.425Z,32.70
2018-06-04T08:48:51.764Z,31.70
2018-06-04T08:53:51.945Z,32.00
2018-06-04T08:56:22.371Z,31.80
2018-06-04T08:58:52.664Z,32.30
2018-06-04T09:01:22.752Z,31.00
2018-06-04T09:03:52.804Z,31.30
2018-06-04T09:06:23.023Z,31.80
2018-06-04T09:11:22.864Z,29.60
2018-06-04T09:13:52.993Z,30.20
2018-06-04T09:16:23.065Z,27.80
2018-06-04T09:18:53.104Z,27.90
2018-06-04T09:21:23.417Z,29.20
2018-06-04T09:23:53.476Z,28.20
2018-06-04T09:26:24.064Z,29.10
2018-06-04T09:28:54.405Z,28.20
2018-06-04T09:31:24.488Z,28.50
2018-06-04T09:33:54.517Z,27.90
2018-06-04T09:36:24.576Z,27.60
2018-06-04T09:38:54.740Z,26.90
2018-06-04T09:41:25.008Z,26.60
2018-06-04T09:43:55.224Z,26.40
2018-06-04T09:46:25.660Z,27.40
2018-06-04T09:48:55.772Z,27.20
2018-06-04T09:51:25.836Z,26.80
2018-06-04T09:53:56.252Z,27.10
2018-06-04T09:56:26.558Z,26.50
2018-06-04T10:01:26.184Z,25.80
2018-06-04T10:03:56.376Z,26.50
2018-06-04T10:06:26.470Z,26.60
2018-06-04T10:08:56.536Z,27.10
2018-06-04T10:11:26.649Z,26.00
2018-06-04T10:13:56.708Z,25.90
2018-06-04T10:16:26.888Z,25.00
2018-06-04T10:18:56.962Z,25.40
2018-06-04T10:21:27.008Z,26.30
2018-06-04T10:23:57.156Z,26.10
2018-06-04T10:26:27.214Z,24.70
2018-06-04T10:28:57.301Z,24.80
2018-06-04T10:31:27.324Z,24.50
2018-06-04T10:33:57.396Z,24.50
2018-06-04T10:36:27.440Z,24.60
2018-06-04T10:38:57.489Z,23.80
2018-06-04T10:41:27.568Z,23.90
2018-06-04T10:43:57.688Z,23.40
2018-06-04T10:46:27.790Z,23.80
2018-06-04T10:48:57.854Z,24.80
2018-06-04T10:51:27.965Z,24.20
2018-06-04T10:53:58.310Z,24.00
2018-06-04T10:56:28.436Z,23.60
2018-06-04T10:58:58.488Z,23.70
2018-06-04T11:01:28.559Z,23.00
2018-06-04T11:03:58.649Z,22.50
2018-06-04T11:06:28.704Z,23.00
2018-06-04T11:08:58.753Z,23.10
2018-06-04T11:11:28.805Z,22.30
2018-06-04T11:13:58.884Z,23.50
2018-06-04T11:16:29.004Z,23.00
2018-06-04T11:18:59.084Z,22.80
2018-06-04T11:21:29.182Z,22.00
2018-06-04T11:23:59.229Z,22.10
2018-06-04T11:26:29.336Z,22.00
2018-06-04T11:28:59.412Z,20.90
2018-06-04T11:31:29.538Z,21.40
2018-06-04T11:33:59.660Z,21.90
2018-06-04T11:36:29.724Z,21.90
2018-06-04T11:38:59.706Z,21.40
2018-06-04T11:41:29.764Z,21.90
2018-06-04T11:43:59.857Z,20.00
2018-06-04T11:46:29.944Z,21.00
2018-06-04T11:51:29.488Z,21.60
2018-06-04T11:53:59.593Z,21.10
2018-06-04T11:56:29.714Z,20.90
2018-06-04T11:58:59.759Z,19.50
2018-06-04T12:01:29.866Z,20.30
2018-06-04T12:03:59.943Z,19.70
2018-06-04T12:06:30.032Z,19.70
2018-06-04T12:08:59.988Z,19.70
2018-06-04T12:11:30.122Z,20.70
2018-06-04T12:14:00.211Z,20.10
2018-06-04T12:16:30.366Z,18.90
2018-06-04T12:19:00.449Z,20.40
2018-06-04T12:21:30.508Z,20.20
2018-06-04T12:24:00.592Z,20.30
2018-06-04T12:26:30.698Z,20.70
2018-06-04T12:29:00.835Z,21.20
2018-06-04T12:31:30.919Z,20.10
2018-06-04T12:34:00.984Z,20.40
2018-06-04T12:36:31.113Z,20.30
2018-06-04T12:39:01.156Z,20.00
2018-06-04T12:41:31.175Z,19.60
2018-06-04T12:46:30.722Z,19.80
2018-06-04T12:49:00.784Z,19.40
2018-06-04T12:51:30.856Z,19.90
2018-06-04T12:56:30.411Z,19.60
2018-06-04T12:59:00.448Z,20.60
2018-06-04T13:01:30.594Z,20.30
2018-06-04T13:04:00.732Z,20.50
2018-06-04T13:06:30.789Z,19.80
2018-06-04T13:09:01.076Z,19.70
2018-06-04T13:11:31.247Z,20.20
2018-06-04T13:14:01.312Z,20.90
2018-06-04T13:16:31.452Z,20.50
2018-06-04T13:19:01.635Z,20.20
2018-06-04T13:21:34.773Z,20.60
2018-06-04T13:24:04.831Z,21.80
2018-06-04T13:26:34.928Z,22.50
2018-06-04T13:29:04.996Z,22.50
2018-06-04T13:31:35.111Z,22.30
2018-06-04T13:34:05.156Z,22.60
2018-06-04T13:36:35.259Z,22.50
2018-06-04T13:39:08.451Z,22.40
2018-06-04T13:41:38.495Z,22.20
2018-06-04T13:44:08.766Z,22.90
2018-06-04T13:46:38.859Z,22.50
2018-06-04T13:49:08.908Z,22.40
2018-06-04T13:51:38.932Z,22.10
2018-06-04T13:54:08.976Z,22.50
2018-06-04T13:56:39.076Z,22.70
2018-06-04T13:59:09.149Z,22.10
2018-06-04T14:01:39.236Z,25.70
2018-06-04T14:04:09.299Z,26.70
2018-06-04T14:06:39.316Z,28.00
2018-06-04T14:09:09.416Z,28.50
2018-06-04T14:11:39.492Z,28.50
2018-06-04T14:14:09.563Z,28.70
2018-06-04T14:16:39.599Z,29.80
2018-06-04T14:19:09.651Z,29.30
2018-06-04T14:21:39.700Z,30.00
2018-06-04T14:24:09.764Z,31.00
2018-06-04T14:26:39.807Z,30.50
2018-06-04T14:29:09.836Z,31.00
2018-06-04T14:31:40.263Z,30.60
2018-06-04T14:34:10.323Z,30.80
2018-06-04T14:41:39.607Z,32.80
2018-06-04T14:44:09.656Z,32.20
2018-06-04T14:46:39.894Z,32.30
2018-06-04T14:49:10.136Z,33.40
2018-06-04T14:54:09.914Z,32.80
2018-06-04T14:56:40.166Z,33.40
2018-06-04T14:59:10.208Z,33.30
2018-06-04T15:01:40.315Z,33.10
2018-06-04T15:06:40.312Z,34.00
2018-06-04T15:09:10.786Z,35.80
2018-06-04T15:11:40.984Z,36.00
2018-06-04T15:14:11.018Z,37.00
2018-06-04T15:16:41.084Z,38.50
2018-06-04T15:19:11.269Z,38.30
2018-06-04T15:21:41.340Z,39.00
2018-06-04T15:24:11.384Z,40.20
2018-06-04T15:26:41.516Z,38.90
2018-06-04T15:29:11.620Z,40.60
2018-06-04T15:31:42.261Z,41.60
2018-06-04T15:34:12.341Z,42.50
2018-06-04T15:36:42.608Z,42.40
2018-06-04T15:39:12.836Z,43.10
2018-06-04T15:44:12.512Z,42.00
2018-06-04T15:46:42.583Z,43.40
2018-06-04T15:49:12.784Z,44.10
2018-06-04T15:51:42.767Z,41.80
2018-06-04T15:54:13.189Z,41.00
2018-06-04T15:56:43.276Z,39.80
2018-06-04T15:59:13.360Z,39.80
2018-06-04T16:04:12.799Z,38.30
2018-06-04T16:06:42.880Z,38.60
2018-06-04T16:09:12.968Z,38.20
2018-06-04T16:11:43.053Z,38.10
2018-06-04T16:14:13.235Z,38.10
2018-06-04T16:16:43.336Z,38.00
2018-06-04T16:19:13.609Z,38.50
2018-06-04T16:21:43.636Z,38.10
2018-06-04T16:24:13.704Z,38.20
2018-06-04T16:29:13.249Z,38.30
2018-06-04T16:31:43.459Z,38.90
2018-06-04T16:34:13.687Z,38.70
2018-06-04T16:36:43.916Z,38.90
2018-06-04T16:39:14.391Z,39.10
2018-06-04T16:41:44.484Z,38.90
2018-06-04T16:44:14.552Z,39.60
2018-06-04T16:46:44.583Z,39.30
2018-06-04T16:49:14.636Z,39.30
2018-06-04T16:51:44.933Z,39.20
2018-06-04T16:54:15.012Z,39.60
2018-06-04T16:56:45.068Z,39.70
2018-06-04T16:59:15.112Z,38.90
2018-06-04T17:01:45.160Z,39.30
2018-06-04T17:04:15.352Z,39.70
2018-06-04T17:06:45.412Z,39.70
2018-06-04T17:09:15.444Z,40.00
2018-06-04T17:11:45.528Z,39.70
2018-06-04T17:14:15.702Z,39.80
2018-06-04T17:16:45.732Z,40.30
2018-06-04T17:19:16.176Z,41.20
2018-06-04T17:21:46.314Z,40.90
2018-06-04T17:24:16.613Z,40.30
2018-06-04T17:26:46.792Z,40.50
2018-06-04T17:29:16.996Z,40.00
2018-06-04T17:31:47.144Z,39.90
2018-06-04T17:34:17.226Z,40.90
2018-06-04T17:36:47.268Z,41.30
2018-06-04T17:39:17.362Z,41.30
2018-06-04T17:41:47.460Z,41.60
2018-06-04T17:44:17.720Z,41.90
2018-06-04T17:46:47.860Z,42.90
2018-06-04T17:49:18.152Z,43.20
2018-06-04T17:51:48.365Z,43.10
2018-06-04T17:54:18.556Z,43.20
2018-06-04T17:56:48.805Z,43.10
2018-06-04T17:59:19.420Z,43.70
2018-06-04T18:06:48.895Z,44.00
2018-06-04T18:11:48.519Z,44.60
2018-06-04T18:14:18.587Z,44.20
2018-06-04T18:16:48.626Z,44.70
2018-06-04T18:19:19.071Z,44.50
2018-06-04T18:24:18.920Z,44.30
2018-06-04T18:29:18.731Z,43.80
2018-06-04T18:31:48.932Z,44.20
2018-06-04T18:34:19.007Z,43.80
2018-06-04T18:36:49.124Z,43.50
2018-06-04T18:39:19.140Z,43.70
2018-06-04T18:41:49.210Z,43.70
2018-06-04T18:44:19.188Z,44.40
2018-06-04T18:46:49.351Z,44.30
2018-06-04T18:49:19.344Z,43.80
2018-06-04T18:51:49.505Z,44.00
2018-06-04T18:54:19.586Z,44.40
2018-06-04T18:56:49.716Z,45.00
2018-06-04T18:59:19.871Z,45.10
2018-06-04T19:01:49.937Z,45.30
2018-06-04T19:04:20.108Z,46.70
2018-06-04T19:06:50.288Z,45.90
2018-06-04T19:09:20.433Z,46.80
2018-06-04T19:11:50.584Z,46.10
2018-06-04T19:14:20.692Z,46.50
2018-06-04T19:16:50.773Z,46.20
2018-06-04T19:19:20.848Z,46.60
2018-06-04T19:21:50.930Z,46.00
2018-06-04T19:24:21.000Z,45.90
2018-06-04T19:26:51.139Z,45.90
2018-06-04T19:29:21.146Z,45.70
2018-06-04T19:31:51.220Z,46.00
2018-06-04T19:34:21.275Z,46.10
2018-06-04T19:36:51.315Z,46.00
2018-06-04T19:39:21.374Z,46.30
2018-06-04T19:41:51.432Z,47.10
2018-06-04T19:44:21.479Z,47.00
2018-06-04T19:46:51.623Z,46.90
2018-06-04T19:49:21.656Z,47.50
2018-06-04T19:51:51.712Z,47.50
2018-06-04T19:54:21.751Z,48.40
2018-06-04T19:56:51.835Z,47.70
2018-06-04T19:59:21.896Z,48.10
2018-06-04T20:01:51.915Z,48.10
2018-06-04T20:04:21.995Z,48.30
2018-06-04T20:06:52.032Z,48.10
2018-06-04T20:09:22.117Z,48.20
2018-06-04T20:11:52.211Z,48.60
2018-06-04T20:14:22.308Z,48.50
2018-06-04T20:16:52.367Z,48.70
2018-06-04T20:19:22.513Z,48.60
2018-06-04T20:21:52.499Z,49.20
2018-06-04T20:24:22.608Z,48.90
2018-06-04T20:26:52.700Z,49.20
2018-06-04T20:29:22.748Z,49.30
2018-06-04T20:31:52.799Z,49.60
2018-06-04T20:34:22.918Z,49.40
2018-06-04T20:36:52.959Z,49.40
2018-06-04T20:39:22.915Z,49.00
2018-06-04T20:41:52.993Z,48.80
2018-06-04T20:44:23.044Z,49.00
2018-06-04T20:46:53.098Z,48.80
2018-06-04T20:49:23.148Z,49.00
2018-06-04T20:51:53.199Z,49.40
2018-06-04T20:54:23.236Z,48.50
2018-06-04T20:56:53.268Z,48.60
2018-06-04T20:59:23.363Z,48.90
2018-06-04T21:01:53.417Z,44.20
2018-06-04T21:04:23.447Z,42.60
2018-06-04T21:06:53.476Z,42.90
2018-06-04T21:09:23.532Z,41.70
2018-06-04T21:11:53.600Z,41.30
2018-06-04T21:14:23.560Z,40.50
2018-06-04T21:16:53.597Z,39.90
2018-06-04T21:19:23.693Z,38.20
2018-06-04T21:21:53.664Z,38.00
2018-06-04T21:24:23.704Z,36.70
2018-06-04T21:26:53.720Z,36.80
2018-06-04T21:29:23.791Z,37.40
2018-06-04T21:31:53.796Z,37.20
2018-06-04T21:34:23.835Z,37.20
2018-06-04T21:36:53.816Z,37.20
2018-06-04T21:39:23.761Z,37.30
2018-06-04T21:41:53.780Z,36.80
2018-06-04T21:44:23.787Z,37.00
2018-06-04T21:46:53.805Z,36.70
2018-06-04T21:49:23.848Z,36.90
2018-06-04T21:51:53.852Z,37.10
2018-06-04T21:54:23.880Z,36.90
2018-06-04T21:56:53.908Z,36.00
2018-06-04T21:59:23.960Z,35.80
2018-06-04T22:01:53.955Z,35.30
2018-06-04T22:04:23.984Z,34.60
2018-06-04T22:06:54.021Z,34.40
2018-06-04T22:09:24.060Z,33.60
2018-06-04T22:11:54.084Z,33.70
2018-06-04T22:14:24.120Z,33.70
2018-06-04T22:16:54.251Z,33.60
2018-06-04T22:19:24.184Z,34.00
2018-06-04T22:21:54.242Z,34.00
2018-06-04T22:24:24.256Z,33.90
2018-06-04T22:26:54.295Z,33.40
2018-06-04T22:29:24.327Z,33.70
2018-06-04T22:31:54.378Z,33.40
2018-06-04T22:34:24.384Z,33.50
2018-06-04T22:36:54.388Z,33.50
2018-06-04T22:39:24.400Z,33.60
2018-06-04T22:41:54.420Z,34.00
2018-06-04T22:44:24.452Z,34.10
2018-06-04T22:46:54.472Z,33.80
2018-06-04T22:49:24.516Z,33.40
2018-06-04T22:51:54.541Z,33.40
2018-06-04T22:54:24.561Z,32.70
2018-06-04T22:56:54.579Z,32.40
2018-06-04T22:59:24.627Z,32.60
2018-06-04T23:01:54.640Z,33.30
2018-06-04T23:04:24.684Z,33.50
2018-06-04T23:06:54.739Z,34.10
2018-06-04T23:09:24.746Z,32.60
2018-06-04T23:11:54.803Z,32.10
2018-06-04T23:14:24.828Z,32.50
2018-06-04T23:16:54.848Z,33.10
2018-06-04T23:19:24.867Z,33.10
2018-06-04T23:21:54.807Z,32.90
2018-06-04T23:24:24.823Z,32.50
2018-06-04T23:26:54.792Z,32.80
2018-06-04T23:29:24.802Z,33.00
2018-06-04T23:31:54.880Z,33.40
2018-06-04T23:34:24.883Z,34.30
2018-06-04T23:36:54.952Z,34.10
2018-06-04T23:39:24.949Z,34.00
2018-06-04T23:41:54.968Z,33.60
2018-06-04T23:44:25.010Z,33.80
2018-06-04T23:46:55.051Z,34.10
2018-06-04T23:49:27.160Z,34.60
2018-06-04T23:51:57.188Z,34.20
2018-06-04T23:54:27.247Z,34.50
2018-06-04T23:56:57.252Z,33.80
2018-06-04T23:59:27.280Z,34.10
